This is the latest recevied weather packets stored in our database for station/object N0TKN. If no packets are shown the sender has not sent any weather packets the latest 10 day(s).
| Time | Temp. | Humidity | Pressure | Rain* | Wind** | Luminosity | Snow |
|---|---|---|---|---|---|---|---|
| 1778119519 | 11.11° C | 56% | 1017.6 hPa | 0 mm | - | 0 W/m² | - |
| 1778118919 | 11.67° C | 50% | 1017.4 hPa | 0 mm | - | 0 W/m² | - |
| 1778118316 | 12.22° C | 49% | 1017.4 hPa | 0 mm | - | 0 W/m² | - |
| 1778117716 | 12.22° C | 47% | 1017.1 hPa | 0 mm | - | 0 W/m² | - |
| 1778117116 | 12.78° C | 47% | 1017 hPa | 0 mm | - | 0 W/m² | - |
| 1778116516 | 12.78° C | 46% | 1016.8 hPa | 0 mm | - | 2 W/m² | - |
| 1778115916 | 12.78° C | 45% | 1016.6 hPa | 0 mm | - | 5 W/m² | - |
| 1778115316 | 13.33° C | 45% | 1016.6 hPa | 0 mm | - | 11 W/m² | - |
| 1778114717 | 13.33° C | 44% | 1016.6 hPa | 0 mm | - | 19 W/m² | - |
| 1778114117 | 13.89° C | 42% | 1016.4 hPa | 0 mm | - | 25 W/m² | - |
| 1778113517 | 13.89° C | 40% | 1016.2 hPa | 0 mm | - | 30 W/m² | - |
| 1778112917 | 14.44° C | 42% | 1016.2 hPa | 0 mm | - | 36 W/m² | - |
| 1778112317 | 14.44° C | 39% | 1015.9 hPa | 0 mm | - | 91 W/m² | - |
| 1778111717 | 14.44° C | 39% | 1016.1 hPa | 0 mm | - | 56 W/m² | - |
| 1778111117 | 14.44° C | 38% | 1016.1 hPa | 0 mm | - | 46 W/m² | - |
| 1778110518 | 15° C | 39% | 1016.1 hPa | 0 mm | - | 49 W/m² | - |
| 1778109918 | 15° C | 41% | 1016.3 hPa | 0 mm | - | 65 W/m² | - |
| 1778109319 | 15° C | 38% | 1016.2 hPa | 0 mm | - | 136 W/m² | - |
| 1778108718 | 15.56° C | 40% | 1016.2 hPa | 0 mm | - | 136 W/m² | - |
| 1778108116 | 15.56° C | 38% | 1015.8 hPa | 0 mm | - | 302 W/m² | - |
| 1778107516 | 15.56° C | 38% | 1015.7 hPa | 0 mm | - | 337 W/m² | - |
| 1778106916 | 16.11° C | 40% | 1015.6 hPa | 0 mm | - | 370 W/m² | - |
| 1778106316 | 16.11° C | 39% | 1015.5 hPa | 0 mm | - | 404 W/m² | - |
| 1778105716 | 16.11° C | 40% | 1015.5 hPa | 0 mm | - | 438 W/m² | - |
| 1778105116 | 16.11° C | 38% | 1015.5 hPa | 0 mm | - | 472 W/m² | - |
* Rain latest hour (hover to see other rain measurements)
** Current wind speed in m/s (hover to see current wind gust speed)